createdAt,value
2019-03-06T00:01:35.783Z,69.40
2019-03-06T00:04:12.208Z,69.40
2019-03-06T00:06:55.899Z,69.40
2019-03-06T00:09:25.646Z,69.40
2019-03-06T00:11:56.392Z,69.40
2019-03-06T00:14:25.527Z,69.60
2019-03-06T00:17:14.937Z,69.60
2019-03-06T00:19:44.512Z,69.70
2019-03-06T00:22:15.713Z,69.80
2019-03-06T00:24:45.555Z,69.80
2019-03-06T00:27:15.359Z,69.80
2019-03-06T00:29:45.134Z,69.80
2019-03-06T00:32:14.261Z,69.90
2019-03-06T00:34:43.953Z,70.00
2019-03-06T00:37:13.245Z,70.00
2019-03-06T00:39:49.558Z,70.20
2019-03-06T00:42:19.585Z,70.10
2019-03-06T00:44:48.701Z,70.00
2019-03-06T00:47:17.723Z,70.00
2019-03-06T00:49:49.787Z,69.90
2019-03-06T00:52:18.718Z,69.80
2019-03-06T00:54:47.660Z,69.90
2019-03-06T00:57:18.554Z,70.00
2019-03-06T00:59:48.152Z,70.10
2019-03-06T01:02:17.642Z,70.00
2019-03-06T01:04:51.667Z,69.90
2019-03-06T01:07:20.639Z,70.00
2019-03-06T01:09:49.911Z,70.00
2019-03-06T01:12:22.521Z,69.90
2019-03-06T01:15:15.779Z,69.90
2019-03-06T01:17:47.318Z,70.00
2019-03-06T01:20:16.766Z,70.00
2019-03-06T01:22:45.960Z,70.00
2019-03-06T01:25:46.062Z,70.10
2019-03-06T01:28:17.161Z,70.20
2019-03-06T01:30:46.655Z,70.10
2019-03-06T01:33:40.860Z,70.10
2019-03-06T01:36:38.075Z,70.20
2019-03-06T01:39:26.586Z,70.20
2019-03-06T01:42:07.587Z,70.10
2019-03-06T01:44:48.526Z,70.20
2019-03-06T01:47:17.708Z,70.10
2019-03-06T01:49:48.503Z,70.00
2019-03-06T01:52:18.224Z,70.00
2019-03-06T01:54:47.267Z,69.90
2019-03-06T01:57:18.387Z,69.90
2019-03-06T01:59:48.039Z,70.00
2019-03-06T02:02:23.659Z,70.10
2019-03-06T02:04:53.825Z,70.20
2019-03-06T02:07:23.089Z,70.10
2019-03-06T02:09:52.619Z,69.90
2019-03-06T02:12:21.903Z,69.80
2019-03-06T02:14:51.528Z,69.90
2019-03-06T02:17:21.539Z,69.80
2019-03-06T02:19:52.868Z,69.80
2019-03-06T02:22:23.119Z,70.00
2019-03-06T02:24:53.272Z,69.80
2019-03-06T02:27:23.650Z,69.70
2019-03-06T02:29:53.463Z,69.70
2019-03-06T02:32:23.483Z,69.90
2019-03-06T02:34:53.355Z,69.90
2019-03-06T02:37:23.850Z,69.90
2019-03-06T02:39:53.421Z,70.00
2019-03-06T02:42:23.171Z,70.00
2019-03-06T02:45:09.744Z,70.00
2019-03-06T02:47:39.257Z,70.20
2019-03-06T02:50:10.067Z,70.10
2019-03-06T02:52:39.203Z,70.20
2019-03-06T02:55:10.038Z,70.10
2019-03-06T02:57:42.207Z,70.00
2019-03-06T03:00:49.255Z,70.00
2019-03-06T03:03:37.829Z,70.10
2019-03-06T03:06:11.612Z,70.00
2019-03-06T03:08:40.793Z,70.00
2019-03-06T03:11:10.285Z,69.90
2019-03-06T03:13:39.516Z,70.00
2019-03-06T03:16:09.577Z,70.00
2019-03-06T03:18:40.002Z,70.00
2019-03-06T03:21:10.429Z,70.10
2019-03-06T03:23:39.667Z,70.10
2019-03-06T03:26:15.525Z,70.20
2019-03-06T03:28:46.793Z,70.30
2019-03-06T03:31:19.767Z,70.20
2019-03-06T03:37:40.879Z,70.20
2019-03-06T03:40:11.890Z,70.30
2019-03-06T03:42:44.936Z,70.30
2019-03-06T03:45:20.674Z,70.10
2019-03-06T03:47:50.466Z,70.10
2019-03-06T03:50:21.953Z,70.10
2019-03-06T03:52:54.844Z,70.10
2019-03-06T03:55:24.395Z,70.40
2019-03-06T03:58:14.146Z,70.50
2019-03-06T04:00:43.622Z,70.80
2019-03-06T04:03:13.380Z,71.00
2019-03-06T04:05:42.626Z,71.10
2019-03-06T04:08:11.810Z,71.20
2019-03-06T04:10:41.166Z,71.30
2019-03-06T04:13:10.215Z,71.40
2019-03-06T04:15:39.867Z,71.50
2019-03-06T04:18:09.670Z,71.60
2019-03-06T04:20:38.827Z,71.70
2019-03-06T04:23:08.581Z,71.90
2019-03-06T04:25:43.282Z,71.90
2019-03-06T04:28:12.664Z,72.00
2019-03-06T04:30:42.319Z,71.90
2019-03-06T04:33:12.238Z,71.90
2019-03-06T04:35:49.480Z,71.70
2019-03-06T04:38:18.598Z,71.70
2019-03-06T04:40:49.207Z,71.70
2019-03-06T04:43:19.835Z,71.70
2019-03-06T04:45:48.954Z,71.50
2019-03-06T04:48:18.086Z,71.40
2019-03-06T04:50:47.837Z,71.30
2019-03-06T04:53:17.577Z,71.30
2019-03-06T04:55:47.031Z,71.20
2019-03-06T04:58:16.716Z,71.30
2019-03-06T05:00:46.215Z,71.20
2019-03-06T05:03:16.559Z,71.10
2019-03-06T05:05:46.676Z,71.20
2019-03-06T05:08:15.776Z,71.30
2019-03-06T05:10:45.064Z,71.40
2019-03-06T05:13:16.937Z,71.30
2019-03-06T05:15:47.688Z,71.40
2019-03-06T05:18:36.060Z,71.50
2019-03-06T05:21:05.421Z,71.40
2019-03-06T05:23:39.787Z,71.40
2019-03-06T05:26:09.618Z,71.40
2019-03-06T05:28:39.633Z,71.60
2019-03-06T05:31:09.471Z,71.60
2019-03-06T05:33:39.312Z,71.60
2019-03-06T05:36:34.377Z,71.60
2019-03-06T05:39:12.299Z,71.50
2019-03-06T05:41:46.050Z,71.40
2019-03-06T05:44:18.290Z,71.40
2019-03-06T05:47:07.318Z,71.40
2019-03-06T05:49:42.023Z,71.60
2019-03-06T05:52:11.171Z,71.60
2019-03-06T05:54:40.550Z,71.40
2019-03-06T05:57:11.258Z,71.40
2019-03-06T05:59:44.570Z,71.40
2019-03-06T06:02:14.403Z,71.50
2019-03-06T06:04:45.455Z,71.40
2019-03-06T06:07:16.623Z,71.40
2019-03-06T06:09:47.146Z,71.40
2019-03-06T06:12:16.349Z,71.50
2019-03-06T06:14:46.712Z,71.50
2019-03-06T06:17:17.081Z,71.70
2019-03-06T06:19:48.727Z,71.60
2019-03-06T06:22:35.583Z,71.50
2019-03-06T06:25:05.486Z,71.40
2019-03-06T06:27:34.781Z,71.40
2019-03-06T06:30:07.285Z,71.70
2019-03-06T06:32:36.871Z,70.90
2019-03-06T06:35:07.555Z,70.70
2019-03-06T06:37:36.824Z,70.50
2019-03-06T06:40:07.271Z,70.20
2019-03-06T06:42:36.605Z,70.10
2019-03-06T06:45:14.793Z,70.00
2019-03-06T06:48:20.714Z,69.90
2019-03-06T06:51:01.249Z,69.80
2019-03-06T06:53:45.189Z,69.80
2019-03-06T06:56:43.207Z,69.70
2019-03-06T06:59:54.499Z,69.60
2019-03-06T07:03:15.722Z,69.40
2019-03-06T07:06:32.223Z,69.40
2019-03-06T07:09:41.973Z,69.40
2019-03-06T07:16:30.570Z,69.40
2019-03-06T07:19:21.757Z,69.00
2019-03-06T07:22:21.689Z,68.50
2019-03-06T07:25:27.918Z,68.20
2019-03-06T07:28:15.771Z,68.00
2019-03-06T07:31:07.217Z,67.80
2019-03-06T07:34:10.006Z,67.60
2019-03-06T07:36:49.812Z,67.30
2019-03-06T07:39:32.184Z,67.20
2019-03-06T07:42:17.152Z,66.90
2019-03-06T07:46:01.949Z,66.70
2019-03-06T07:49:03.050Z,66.70
2019-03-06T07:52:37.192Z,66.40
2019-03-06T07:55:32.675Z,66.00
2019-03-06T07:58:43.080Z,66.10
2019-03-06T08:01:34.551Z,66.10
2019-03-06T08:04:32.841Z,66.30
2019-03-06T08:07:24.620Z,66.50
2019-03-06T08:09:55.240Z,66.60
2019-03-06T08:12:53.311Z,66.50
2019-03-06T08:16:00.266Z,66.70
2019-03-06T08:18:48.958Z,66.80
2019-03-06T08:21:38.683Z,66.50
2019-03-06T08:24:32.058Z,66.50
2019-03-06T08:27:03.209Z,66.50
2019-03-06T08:29:34.844Z,66.30
2019-03-06T08:32:23.876Z,66.20
2019-03-06T08:34:55.426Z,65.90
2019-03-06T08:37:24.942Z,65.70
2019-03-06T08:39:55.967Z,65.60
2019-03-06T08:42:28.543Z,66.10
2019-03-06T08:45:09.021Z,65.40
2019-03-06T08:47:59.005Z,65.30
2019-03-06T08:50:59.942Z,65.00
2019-03-06T08:54:04.363Z,64.90
2019-03-06T08:56:55.326Z,64.60
2019-03-06T08:59:45.070Z,64.40
2019-03-06T09:02:41.084Z,64.30
2019-03-06T09:05:45.347Z,64.00
2019-03-06T09:08:44.688Z,64.00
2019-03-06T09:11:33.792Z,63.80
2019-03-06T09:14:47.007Z,63.80
2019-03-06T09:17:38.467Z,63.60
2019-03-06T09:20:23.109Z,63.90
2019-03-06T09:23:30.168Z,63.10
2019-03-06T09:26:54.667Z,63.00
2019-03-06T09:29:31.100Z,63.00
2019-03-06T09:32:18.969Z,63.00
2019-03-06T09:35:03.105Z,62.80
2019-03-06T09:38:13.051Z,62.70
2019-03-06T09:41:08.348Z,62.50
2019-03-06T09:44:01.300Z,62.30
2019-03-06T09:46:42.579Z,62.10
2019-03-06T09:49:28.236Z,62.00
2019-03-06T09:52:28.283Z,61.60
2019-03-06T09:59:06.106Z,61.80
2019-03-06T10:02:06.527Z,61.20
2019-03-06T10:04:56.762Z,61.10
2019-03-06T10:08:03.883Z,61.00
2019-03-06T10:11:35.344Z,60.90
2019-03-06T10:14:34.500Z,60.80
2019-03-06T10:18:01.540Z,60.30
2019-03-06T10:20:54.168Z,59.90
2019-03-06T10:23:39.968Z,60.10
2019-03-06T10:26:56.122Z,60.00
2019-03-06T10:29:43.026Z,60.00
2019-03-06T10:32:28.060Z,59.80
2019-03-06T10:35:11.529Z,59.80
2019-03-06T10:38:37.265Z,59.70
2019-03-06T10:41:41.269Z,59.50
2019-03-06T10:44:35.786Z,59.30
2019-03-06T10:47:45.586Z,59.20
2019-03-06T10:54:26.457Z,58.70
2019-03-06T11:00:49.875Z,58.40
2019-03-06T11:03:24.682Z,58.20
2019-03-06T11:05:59.411Z,58.20
2019-03-06T11:11:30.068Z,57.90
2019-03-06T11:14:17.592Z,57.90
2019-03-06T11:49:36.516Z,56.20
2019-03-06T12:00:04.829Z,55.80
2019-03-06T12:14:18.639Z,56.00
2019-03-06T12:17:38.726Z,56.10
2019-03-06T12:20:48.039Z,56.20
2019-03-06T12:30:40.851Z,55.50
2019-03-06T12:37:37.047Z,55.20
2019-03-06T12:44:44.205Z,55.20
2019-03-06T12:52:07.239Z,55.50
2019-03-06T12:58:20.429Z,55.40
2019-03-06T13:01:18.485Z,55.50
2019-03-06T13:12:55.086Z,55.50
2019-03-06T13:16:02.639Z,55.20
2019-03-06T13:18:35.537Z,55.20
2019-03-06T13:21:15.148Z,55.10
2019-03-06T13:24:09.386Z,55.10
2019-03-06T13:27:20.934Z,55.00
2019-03-06T13:29:59.031Z,55.10
2019-03-06T13:32:42.025Z,55.10
2019-03-06T13:35:24.809Z,54.70
2019-03-06T13:37:57.774Z,55.00
2019-03-06T13:40:35.596Z,55.10
2019-03-06T13:43:30.205Z,55.30
2019-03-06T13:46:39.393Z,55.40
2019-03-06T13:49:21.594Z,55.60
2019-03-06T13:52:13.817Z,55.60
2019-03-06T13:58:19.732Z,55.60
2019-03-06T14:01:10.692Z,55.80
2019-03-06T14:03:47.430Z,55.90
2019-03-06T14:06:44.142Z,55.90
2019-03-06T14:09:16.938Z,55.80
2019-03-06T14:11:57.669Z,55.80
2019-03-06T14:14:36.347Z,56.10
2019-03-06T14:20:46.057Z,56.50
2019-03-06T14:23:19.996Z,56.20
2019-03-06T14:26:09.728Z,56.40
2019-03-06T14:29:51.882Z,56.70
2019-03-06T14:32:26.275Z,57.00
2019-03-06T14:35:00.341Z,57.80
2019-03-06T14:41:21.293Z,58.80
2019-03-06T14:43:55.291Z,59.70
2019-03-06T14:47:00.474Z,60.20
2019-03-06T14:49:48.966Z,61.00
2019-03-06T14:52:31.477Z,61.50
2019-03-06T14:55:11.707Z,62.20
2019-03-06T14:58:02.532Z,63.00
2019-03-06T15:00:32.060Z,63.50
2019-03-06T15:03:03.700Z,64.00
2019-03-06T15:05:35.538Z,64.30
2019-03-06T15:08:11.147Z,64.70
2019-03-06T15:10:43.210Z,65.10
2019-03-06T15:13:18.202Z,65.50
2019-03-06T15:15:48.762Z,65.80
2019-03-06T15:18:20.236Z,66.10
2019-03-06T15:20:49.267Z,66.40
2019-03-06T15:23:24.273Z,66.70
2019-03-06T15:26:12.048Z,66.80
2019-03-06T15:32:42.097Z,67.20
2019-03-06T15:35:48.255Z,67.60
2019-03-06T15:38:30.413Z,68.00
2019-03-06T15:41:29.169Z,68.00
2019-03-06T15:44:05.422Z,68.10
2019-03-06T15:50:23.920Z,68.40
2019-03-06T15:56:23.947Z,68.60
2019-03-06T16:02:41.856Z,69.10
2019-03-06T16:05:22.796Z,69.20
2019-03-06T16:07:52.804Z,69.60
2019-03-06T16:10:25.032Z,69.80
2019-03-06T16:12:57.186Z,69.80
2019-03-06T16:15:28.458Z,69.90
2019-03-06T16:17:59.838Z,69.90
2019-03-06T16:20:30.272Z,69.90
2019-03-06T16:23:03.701Z,69.80
2019-03-06T16:25:37.938Z,69.90
2019-03-06T16:28:04.562Z,69.90
2019-03-06T16:30:36.844Z,69.80
2019-03-06T16:33:05.985Z,69.80
2019-03-06T16:35:53.867Z,69.90
2019-03-06T16:38:24.873Z,69.90
2019-03-06T16:41:00.993Z,70.00
2019-03-06T16:44:00.558Z,70.00
2019-03-06T16:46:30.293Z,70.10
2019-03-06T16:49:03.381Z,70.20
2019-03-06T16:51:34.538Z,70.10
2019-03-06T16:54:06.540Z,70.20
2019-03-06T16:56:56.633Z,70.40
2019-03-06T16:59:26.725Z,70.50
2019-03-06T17:01:57.190Z,70.60
2019-03-06T17:04:26.804Z,70.70
2019-03-06T17:06:59.430Z,70.70
2019-03-06T17:09:29.215Z,70.70
2019-03-06T17:12:01.698Z,70.80
2019-03-06T17:14:30.930Z,70.80
2019-03-06T17:17:06.817Z,70.60
2019-03-06T17:19:37.994Z,70.60
2019-03-06T17:22:08.324Z,70.40
2019-03-06T17:24:37.798Z,70.30
2019-03-06T17:27:07.360Z,70.30
2019-03-06T17:29:41.939Z,70.20
2019-03-06T17:32:14.438Z,70.00
2019-03-06T17:34:47.289Z,70.00
2019-03-06T17:37:19.473Z,70.00
2019-03-06T17:39:52.759Z,69.90
2019-03-06T17:42:22.559Z,69.70
2019-03-06T17:44:57.817Z,69.50
2019-03-06T17:47:27.961Z,69.40
2019-03-06T17:49:58.050Z,69.30
2019-03-06T17:52:29.763Z,69.30
2019-03-06T17:55:02.863Z,69.20
2019-03-06T17:57:32.942Z,69.20
2019-03-06T18:00:04.637Z,68.90
2019-03-06T18:02:33.869Z,68.80
2019-03-06T18:05:08.362Z,68.80
2019-03-06T18:07:43.181Z,68.60
2019-03-06T18:10:17.599Z,68.30
2019-03-06T18:12:47.616Z,68.10
2019-03-06T18:15:17.613Z,68.00
2019-03-06T18:17:50.902Z,68.00
2019-03-06T18:20:21.018Z,68.10
2019-03-06T18:22:57.738Z,68.30
2019-03-06T18:25:27.049Z,68.30
2019-03-06T18:27:57.079Z,68.30
2019-03-06T18:30:28.963Z,68.10
2019-03-06T18:33:05.336Z,68.40
2019-03-06T18:35:35.570Z,68.00
2019-03-06T18:38:05.016Z,68.00
2019-03-06T18:40:35.093Z,68.40
2019-03-06T18:43:07.273Z,68.30
2019-03-06T18:45:37.817Z,68.20
2019-03-06T18:48:07.061Z,68.20
2019-03-06T18:50:38.905Z,68.20
2019-03-06T18:53:09.885Z,68.30
2019-03-06T18:55:44.349Z,68.20
2019-03-06T18:58:17.191Z,68.20
2019-03-06T19:00:46.514Z,68.20
2019-03-06T19:03:16.473Z,68.10
2019-03-06T19:05:49.728Z,68.00
2019-03-06T19:08:19.313Z,67.90
2019-03-06T19:10:51.841Z,67.80
2019-03-06T19:13:21.726Z,67.60
2019-03-06T19:16:01.248Z,67.50
2019-03-06T19:18:30.361Z,67.30
2019-03-06T19:21:05.346Z,67.20
2019-03-06T19:23:41.568Z,67.00
2019-03-06T19:26:12.198Z,67.40
2019-03-06T19:28:41.305Z,66.70
2019-03-06T19:31:29.526Z,66.50
2019-03-06T19:33:59.240Z,66.00
2019-03-06T19:36:29.206Z,65.60
2019-03-06T19:38:59.334Z,65.50
2019-03-06T19:41:28.642Z,65.00
2019-03-06T19:44:01.151Z,64.60
2019-03-06T19:46:30.635Z,64.60
2019-03-06T19:49:04.517Z,64.30
2019-03-06T19:51:34.319Z,64.00
2019-03-06T19:54:05.840Z,63.60
2019-03-06T19:59:42.198Z,63.00
2019-03-06T20:02:12.406Z,62.60
2019-03-06T20:04:45.700Z,62.30
2019-03-06T20:07:20.094Z,62.00
2019-03-06T20:09:52.614Z,61.80
2019-03-06T20:12:37.942Z,61.50
2019-03-06T20:15:09.603Z,61.80
2019-03-06T20:17:40.492Z,61.80
2019-03-06T20:20:14.778Z,61.60
2019-03-06T20:22:46.172Z,61.60
2019-03-06T20:25:16.436Z,61.70
2019-03-06T20:27:46.059Z,61.90
2019-03-06T20:30:18.336Z,62.20
2019-03-06T20:32:48.881Z,62.80
2019-03-06T20:35:23.218Z,63.00
2019-03-06T20:37:56.602Z,63.40
2019-03-06T20:40:25.898Z,63.80
2019-03-06T20:43:05.628Z,64.00
2019-03-06T20:45:36.349Z,64.20
2019-03-06T20:48:05.879Z,64.60
2019-03-06T20:50:35.875Z,65.00
2019-03-06T20:53:05.499Z,65.20
2019-03-06T20:55:36.551Z,65.40
2019-03-06T20:58:10.369Z,65.60
2019-03-06T21:00:40.180Z,65.80
2019-03-06T21:03:09.849Z,66.10
2019-03-06T21:05:42.774Z,66.10
2019-03-06T21:08:12.383Z,66.60
2019-03-06T21:10:45.032Z,66.80
2019-03-06T21:13:14.186Z,66.80
2019-03-06T21:15:46.981Z,67.00
2019-03-06T21:18:18.442Z,67.10
2019-03-06T21:20:48.534Z,67.20
2019-03-06T21:23:18.217Z,67.30
2019-03-06T21:25:47.520Z,67.50
2019-03-06T21:33:12.550Z,67.60
2019-03-06T21:40:30.280Z,68.00
2019-03-06T21:46:39.211Z,68.40
2019-03-06T21:49:51.240Z,68.80
2019-03-06T21:52:50.838Z,69.00
2019-03-06T21:59:16.718Z,69.50
2019-03-06T22:02:47.397Z,69.60
2019-03-06T22:16:46.100Z,70.90
2019-03-06T22:19:23.968Z,70.90
2019-03-06T22:22:19.563Z,71.00
2019-03-06T22:25:02.573Z,71.20
2019-03-06T22:27:33.190Z,71.20
2019-03-06T22:30:12.861Z,71.20
2019-03-06T22:32:44.912Z,71.40
2019-03-06T22:35:16.013Z,71.50
2019-03-06T22:37:52.300Z,71.50
2019-03-06T22:40:49.445Z,71.50
2019-03-06T22:43:42.165Z,71.40
2019-03-06T22:46:38.280Z,71.40
2019-03-06T22:49:41.490Z,71.60
2019-03-06T22:59:38.035Z,71.60
2019-03-06T23:03:10.247Z,71.50
2019-03-06T23:06:30.878Z,71.70
2019-03-06T23:09:59.520Z,71.90
2019-03-06T23:16:52.516Z,72.00
2019-03-06T23:19:47.214Z,71.90
2019-03-06T23:26:08.067Z,71.90
2019-03-06T23:29:47.402Z,72.00
2019-03-06T23:33:04.803Z,72.00
2019-03-06T23:35:49.914Z,72.00
2019-03-06T23:38:26.624Z,72.00
2019-03-06T23:41:17.471Z,72.00
2019-03-06T23:43:49.089Z,72.10
2019-03-06T23:46:23.141Z,72.20
2019-03-06T23:49:16.509Z,72.20
2019-03-06T23:52:08.991Z,72.20
2019-03-06T23:55:07.238Z,72.30
2019-03-06T23:57:41.293Z,72.20
